Time;durP1;ratioP1;P1;durP2;ratioP2;P2;SDS_P1;SDS_P2;PMS_P1;PMS_P2;Temp;Humidity;BMP_temperature;BMP_pressure;BME280_temperature;BME280_humidity;BME280_pressure;Samples;Min_cycle;Max_cycle;Signal;HPM_P1;HPM_P2
2022/09/09 00:00:17;;;;;;;3.30;1.73;;;13.90;99.90;;;;;;4942228;28;20473;-88
2022/09/09 00:03:07;;;;;;;3.60;1.63;;;13.90;99.90;;;;;;4930713;28;20434;-88
2022/09/09 00:05:48;;;;;;;3.60;1.70;;;13.90;99.90;;;;;;4925267;28;20557;-88
2022/09/09 00:08:24;;;;;;;2.20;1.33;;;13.90;99.90;;;;;;4927855;28;20451;-88
2022/09/09 00:11:04;;;;;;;3.17;1.47;;;13.90;99.90;;;;;;4923211;28;20449;-87
2022/09/09 00:13:48;;;;;;;1.90;1.70;;;13.90;99.90;;;;;;4931915;28;20468;-87
2022/09/09 00:16:17;;;;;;;4.30;1.70;;;13.90;99.90;;;;;;4926318;28;20482;-88
2022/09/09 00:18:54;;;;;;;1.70;1.60;;;13.90;99.90;;;;;;4945230;28;20451;-89
2022/09/09 00:21:26;;;;;;;2.17;1.43;;;14.00;99.90;;;;;;4925301;28;20434;-88
2022/09/09 00:23:55;;;;;;;4.03;1.50;;;13.90;99.90;;;;;;4927940;28;20866;-87
2022/09/09 00:26:30;;;;;;;1.73;1.63;;;13.90;99.90;;;;;;4940501;28;20446;-87
2022/09/09 00:29:22;;;;;;;3.60;1.40;;;14.00;99.90;;;;;;4943670;28;20448;-87
2022/09/09 00:31:52;;;;;;;2.67;1.43;;;13.90;99.90;;;;;;4918931;28;20521;-88
2022/09/09 00:34:24;;;;;;;1.73;1.50;;;13.90;99.90;;;;;;4922051;28;20474;-88
2022/09/09 00:36:52;;;;;;;3.63;1.30;;;13.90;99.90;;;;;;4924541;28;20533;-89
2022/09/09 00:39:34;;;;;;;1.53;1.43;;;14.00;99.90;;;;;;4919258;28;20964;-88
2022/09/09 00:42:13;;;;;;;2.40;1.60;;;14.00;99.90;;;;;;4938880;28;20489;-89
2022/09/09 00:45:12;;;;;;;2.63;1.60;;;14.10;99.90;;;;;;4931037;28;20764;-88
2022/09/09 00:47:53;;;;;;;4.47;1.47;;;14.00;99.90;;;;;;4927304;28;20819;-89
2022/09/09 00:50:43;;;;;;;3.70;1.40;;;13.90;99.90;;;;;;4935532;28;20443;-88
2022/09/09 00:53:31;;;;;;;1.60;1.40;;;14.00;99.90;;;;;;4926658;28;20450;-88
2022/09/09 00:56:21;;;;;;;2.77;1.80;;;14.00;99.90;;;;;;4928611;28;21041;-88
2022/09/09 00:59:06;;;;;;;1.87;1.30;;;14.10;99.90;;;;;;4921561;28;20450;-88
2022/09/09 01:01:32;;;;;;;2.20;1.57;;;14.10;99.90;;;;;;4921993;28;20442;-88
2022/09/09 01:03:59;;;;;;;2.00;1.80;;;14.10;99.90;;;;;;4924767;28;20814;-89
2022/09/09 01:06:33;;;;;;;2.00;1.50;;;14.00;99.90;;;;;;4926927;28;20314;-88
2022/09/09 01:09:22;;;;;;;2.30;1.67;;;14.00;99.90;;;;;;4923549;28;20449;-89
2022/09/09 01:12:03;;;;;;;2.20;1.50;;;13.90;99.90;;;;;;4930789;28;20810;-89
2022/09/09 01:14:34;;;;;;;3.47;1.60;;;13.80;99.90;;;;;;4944190;28;20454;-88
2022/09/09 01:17:09;;;;;;;1.80;1.63;;;13.80;99.90;;;;;;4941875;28;20514;-87
2022/09/09 01:19:46;;;;;;;2.10;1.50;;;13.80;99.90;;;;;;4921693;28;20480;-88
2022/09/09 01:22:30;;;;;;;4.03;1.70;;;13.90;99.90;;;;;;4939318;28;20537;-89
2022/09/09 01:25:25;;;;;;;2.87;1.53;;;13.90;99.90;;;;;;4926990;28;20438;-88
2022/09/09 01:27:55;;;;;;;1.73;1.63;;;13.90;99.90;;;;;;4941587;28;20482;-88
2022/09/09 01:30:21;;;;;;;3.37;1.77;;;14.00;99.90;;;;;;4926569;28;20445;-89
2022/09/09 01:32:55;;;;;;;1.47;1.37;;;13.90;99.90;;;;;;4928877;28;20453;-88
2022/09/09 01:35:30;;;;;;;2.73;1.50;;;14.00;99.90;;;;;;4925453;28;20521;-88
2022/09/09 01:37:55;;;;;;;1.50;1.40;;;14.00;99.90;;;;;;4951262;28;20528;-89
2022/09/09 01:40:25;;;;;;;2.10;1.20;;;14.00;99.90;;;;;;4943409;28;20455;-88
2022/09/09 01:42:51;;;;;;;2.73;1.50;;;14.00;99.90;;;;;;4951262;28;20896;-89
2022/09/09 01:45:17;;;;;;;1.43;1.30;;;14.00;99.90;;;;;;4943127;28;20461;-89
2022/09/09 01:47:44;;;;;;;1.50;1.40;;;13.90;99.90;;;;;;4939168;28;20447;-88
2022/09/09 01:50:13;;;;;;;2.63;1.53;;;13.90;99.90;;;;;;4941265;28;20251;-87
2022/09/09 01:52:38;;;;;;;2.87;1.60;;;13.90;99.90;;;;;;4943059;28;20443;-88
2022/09/09 01:55:06;;;;;;;1.87;1.77;;;13.80;99.90;;;;;;4921847;28;20470;-88
2022/09/09 01:57:42;;;;;;;1.63;1.53;;;13.80;99.90;;;;;;4916351;28;20220;-88
2022/09/09 02:00:11;;;;;;;2.73;1.43;;;13.80;99.90;;;;;;4922013;28;20467;-88
2022/09/09 02:02:59;;;;;;;3.03;1.67;;;13.80;99.90;;;;;;4925944;28;20993;-88
2022/09/09 02:05:34;;;;;;;1.40;1.30;;;13.70;99.90;;;;;;4921177;28;20458;-88
2022/09/09 02:08:23;;;;;;;2.10;1.30;;;13.70;99.90;;;;;;4935358;28;20438;-88
2022/09/09 02:11:14;;;;;;;2.37;1.40;;;13.70;99.90;;;;;;4921047;28;20792;-88
2022/09/09 02:13:46;;;;;;;1.50;1.30;;;13.70;99.90;;;;;;4928347;28;20505;-89
2022/09/09 02:16:21;;;;;;;2.10;1.90;;;13.80;99.90;;;;;;4920464;28;20439;-89
2022/09/09 02:19:12;;;;;;;2.10;1.90;;;13.80;99.90;;;;;;4926418;28;20812;-89
2022/09/09 02:21:39;;;;;;;4.37;1.90;;;13.80;99.90;;;;;;4920279;28;20440;-89
2022/09/09 02:24:10;;;;;;;2.00;1.80;;;13.90;99.90;;;;;;4921879;28;20435;-89
2022/09/09 02:26:40;;;;;;;1.80;1.23;;;13.80;99.90;;;;;;4922786;28;20458;-88
2022/09/09 02:29:12;;;;;;;1.20;1.20;;;13.70;99.90;;;;;;4929620;28;20454;-88
2022/09/09 02:31:50;;;;;;;4.70;1.67;;;13.60;99.90;;;;;;4949229;28;20506;-88
2022/09/09 02:34:18;;;;;;;1.43;1.30;;;13.50;99.90;;;;;;4938600;28;20453;-88
2022/09/09 02:36:46;;;;;;;2.50;1.40;;;13.50;99.90;;;;;;4924300;28;20497;-89
2022/09/09 02:39:13;;;;;;;3.60;2.23;;;13.40;99.90;;;;;;4921723;28;20434;-89
2022/09/09 02:41:41;;;;;;;2.43;1.60;;;13.30;99.90;;;;;;4919233;28;20505;-88
2022/09/09 02:44:19;;;;;;;1.33;1.23;;;13.20;99.90;;;;;;4926382;28;21043;-89
2022/09/09 02:47:16;;;;;;;1.70;1.50;;;13.20;99.90;;;;;;4938266;28;20457;-88
2022/09/09 02:50:23;;;;;;;2.47;1.63;;;13.30;99.90;;;;;;4911502;28;20852;-89
2022/09/09 02:53:03;;;;;;;4.30;1.50;;;13.20;99.90;;;;;;4939165;28;20438;-88
2022/09/09 02:55:39;;;;;;;4.43;1.73;;;13.20;99.90;;;;;;4938878;28;20445;-88
2022/09/09 02:58:08;;;;;;;2.10;1.80;;;13.30;99.90;;;;;;4920339;28;20569;-89
2022/09/09 03:00:35;;;;;;;3.47;2.30;;;13.30;99.90;;;;;;4921246;28;20983;-88
2022/09/09 03:03:05;;;;;;;3.63;2.07;;;13.20;99.90;;;;;;4920003;28;20446;-87
2022/09/09 03:05:31;;;;;;;2.10;1.60;;;13.30;99.90;;;;;;4927073;28;20847;-88
2022/09/09 03:07:57;;;;;;;3.03;1.90;;;13.20;99.90;;;;;;4927481;28;20470;-88
2022/09/09 03:10:23;;;;;;;2.07;1.27;;;13.20;99.90;;;;;;4915386;28;20505;-87
2022/09/09 03:12:48;;;;;;;4.70;1.77;;;13.30;99.90;;;;;;4925131;28;20539;-88
2022/09/09 03:15:15;;;;;;;2.00;1.70;;;13.40;99.90;;;;;;4924251;28;20840;-88
2022/09/09 03:17:40;;;;;;;2.13;1.83;;;13.40;99.90;;;;;;4930434;28;20632;-88
2022/09/09 03:20:07;;;;;;;2.30;1.63;;;13.40;99.90;;;;;;4921029;28;20438;-89
2022/09/09 03:22:34;;;;;;;4.10;2.37;;;13.30;99.90;;;;;;4922129;28;20481;-89
2022/09/09 03:24:59;;;;;;;2.13;1.87;;;13.30;99.90;;;;;;4928913;28;20964;-89
2022/09/09 03:27:25;;;;;;;3.27;1.43;;;13.30;99.90;;;;;;4920929;28;20465;-89
2022/09/09 03:29:51;;;;;;;2.03;1.93;;;13.30;99.90;;;;;;4921190;28;20194;-88
2022/09/09 03:32:18;;;;;;;1.90;1.80;;;13.20;99.90;;;;;;4922124;28;20273;-88
2022/09/09 03:34:44;;;;;;;2.30;1.80;;;13.20;99.90;;;;;;4925861;28;20479;-88
2022/09/09 03:37:09;;;;;;;2.97;1.93;;;13.20;99.90;;;;;;4923457;28;20568;-89
2022/09/09 03:39:35;;;;;;;2.60;2.00;;;13.20;99.90;;;;;;4926519;28;20961;-89
2022/09/09 03:42:03;;;;;;;3.10;2.10;;;13.20;99.90;;;;;;4918716;28;20198;-89
2022/09/09 03:44:30;;;;;;;1.77;1.63;;;13.10;99.90;;;;;;4939847;28;20313;-89
2022/09/09 03:46:56;;;;;;;3.73;2.07;;;13.20;99.90;;;;;;4921684;28;20445;-89
2022/09/09 03:49:22;;;;;;;2.00;1.90;;;13.20;99.90;;;;;;4923397;28;20435;-89
2022/09/09 03:51:48;;;;;;;2.10;1.90;;;13.20;99.90;;;;;;4917766;28;20680;-88
2022/09/09 03:54:13;;;;;;;2.73;1.73;;;13.30;99.90;;;;;;4928860;28;20492;-88
2022/09/09 03:56:41;;;;;;;3.50;1.90;;;13.30;99.90;;;;;;4919967;28;20218;-87
2022/09/09 03:59:08;;;;;;;1.80;1.67;;;13.30;99.90;;;;;;4930862;28;20266;-88
2022/09/09 04:01:34;;;;;;;4.50;2.03;;;13.30;99.90;;;;;;4915267;28;20539;-88
2022/09/09 04:04:01;;;;;;;2.90;2.10;;;13.30;99.90;;;;;;4926154;28;20442;-88
2022/09/09 04:06:26;;;;;;;2.20;1.83;;;13.40;99.90;;;;;;4914173;28;20889;-88
2022/09/09 04:08:52;;;;;;;5.30;2.03;;;13.50;99.90;;;;;;4917285;28;20446;-88
2022/09/09 04:11:18;;;;;;;2.20;1.90;;;13.50;99.90;;;;;;4921814;28;20184;-90
2022/09/09 04:13:47;;;;;;;2.97;1.80;;;13.50;99.90;;;;;;4920777;28;20210;-88
2022/09/09 04:16:15;;;;;;;4.00;2.00;;;13.40;99.90;;;;;;4936327;28;20187;-88
2022/09/09 04:18:41;;;;;;;3.20;2.00;;;13.30;99.90;;;;;;4941276;28;20445;-89
2022/09/09 04:21:19;;;;;;;3.33;2.00;;;13.30;99.90;;;;;;4921211;28;20437;-87
2022/09/09 04:23:45;;;;;;;3.63;1.80;;;13.40;99.90;;;;;;4922110;28;20476;-86
2022/09/09 04:26:10;;;;;;;2.97;1.77;;;13.50;99.90;;;;;;4949415;28;20447;-89
2022/09/09 04:28:37;;;;;;;1.63;1.53;;;13.50;99.90;;;;;;4949403;28;20203;-87
2022/09/09 04:31:26;;;;;;;2.10;1.60;;;13.60;99.90;;;;;;4929132;28;20441;-88
2022/09/09 04:33:52;;;;;;;2.10;1.80;;;13.60;99.90;;;;;;4916398;28;20481;-87
2022/09/09 04:36:19;;;;;;;3.43;2.03;;;13.50;99.90;;;;;;4932064;28;21756;-86
2022/09/09 04:38:45;;;;;;;3.20;1.87;;;13.50;99.90;;;;;;4920119;28;20454;-87
2022/09/09 04:41:11;;;;;;;3.80;1.90;;;13.60;99.90;;;;;;4912841;28;20537;-88
2022/09/09 04:43:53;;;;;;;5.17;1.93;;;13.60;99.90;;;;;;4926512;28;20458;-90
2022/09/09 06:14:25;;;;;;;4.33;2.10;;;15.20;99.90;;;;;;4965097;28;20491;-89
2022/09/09 06:16:51;;;;;;;5.20;2.07;;;15.20;99.90;;;;;;4962446;28;20473;-90
2022/09/09 06:19:16;;;;;;;6.00;1.80;;;15.40;99.90;;;;;;4946546;28;20538;-90
2022/09/09 06:21:58;;;;;;;2.20;1.80;;;15.30;99.90;;;;;;4964574;28;20438;-91
2022/09/09 06:24:24;;;;;;;2.37;1.73;;;15.50;99.90;;;;;;4947212;28;20205;-90
2022/09/09 06:26:49;;;;;;;2.70;2.30;;;15.50;99.90;;;;;;4958338;28;20437;-90
2022/09/09 06:29:15;;;;;;;3.57;2.00;;;15.60;99.90;;;;;;4963850;28;20206;-91
2022/09/09 06:31:47;;;;;;;2.43;2.23;;;15.60;99.90;;;;;;4947646;28;20197;-90
2022/09/09 06:34:26;;;;;;;2.87;1.70;;;15.60;99.90;;;;;;4945988;28;20683;-91
2022/09/09 06:36:52;;;;;;;6.07;2.67;;;15.50;99.90;;;;;;4946482;28;20524;-91
2022/09/09 06:39:17;;;;;;;3.40;2.27;;;15.70;99.90;;;;;;4947478;28;20446;-91
2022/09/09 06:41:49;;;;;;;3.77;2.03;;;15.80;99.90;;;;;;4963576;28;20182;-91
2022/09/09 06:44:18;;;;;;;2.93;1.90;;;15.90;99.90;;;;;;4964237;28;20190;-91
2022/09/09 06:47:07;;;;;;;2.37;1.80;;;15.90;99.90;;;;;;4961484;28;20516;-91
2022/09/09 06:49:32;;;;;;;4.47;1.90;;;16.00;99.90;;;;;;4944333;28;20450;-92
2022/09/09 06:52:08;;;;;;;2.27;1.73;;;16.10;99.90;;;;;;4944758;28;20476;-90
2022/09/09 06:54:37;;;;;;;3.13;1.70;;;16.30;99.90;;;;;;4962211;28;20190;-92
2022/09/09 06:57:02;;;;;;;3.03;2.00;;;16.40;99.90;;;;;;4946205;28;20481;-91
2022/09/09 06:59:30;;;;;;;4.40;1.73;;;16.40;99.90;;;;;;4962232;28;20479;-90
2022/09/09 07:01:56;;;;;;;1.93;1.50;;;16.50;99.90;;;;;;4944576;28;20182;-89
2022/09/09 07:04:22;;;;;;;2.07;1.80;;;16.60;99.90;;;;;;4947603;28;20524;-90
2022/09/09 07:06:48;;;;;;;2.40;1.70;;;16.60;99.90;;;;;;4960971;28;20441;-90
2022/09/09 07:09:15;;;;;;;1.83;1.73;;;16.60;99.90;;;;;;4948193;28;20191;-90
2022/09/09 07:11:44;;;;;;;3.73;1.60;;;16.80;99.90;;;;;;4963013;28;20194;-91
2022/09/09 07:14:13;;;;;;;3.07;2.30;;;16.90;99.90;;;;;;4945410;28;20893;-91
2022/09/09 07:16:40;;;;;;;6.83;2.00;;;17.10;99.90;;;;;;4945593;28;20461;-90
2022/09/09 07:19:06;;;;;;;1.83;1.50;;;17.30;99.90;;;;;;4963927;28;20465;-90
2022/09/09 07:21:33;;;;;;;2.20;1.40;;;17.50;99.90;;;;;;4940056;28;20843;-90
2022/09/09 07:23:59;;;;;;;1.70;1.50;;;17.60;99.90;;;;;;4948457;28;20237;-89
2022/09/09 07:26:27;;;;;;;2.43;1.80;;;17.60;99.90;;;;;;4960931;28;20873;-90
2022/09/09 07:28:53;;;;;;;2.03;1.87;;;17.50;99.90;;;;;;4961273;28;20451;-91
2022/09/09 07:31:30;;;;;;;2.60;1.57;;;17.70;99.90;;;;;;4946240;28;20524;-91
2022/09/09 07:33:56;;;;;;;2.43;1.60;;;17.90;99.90;;;;;;4961357;28;20756;-90
2022/09/09 07:36:33;;;;;;;3.40;1.83;;;18.10;99.90;;;;;;4941452;28;21240;-90
2022/09/09 07:39:07;;;;;;;1.60;1.30;;;18.00;99.90;;;;;;4961178;28;20811;-90
2022/09/09 07:41:40;;;;;;;3.03;1.50;;;17.90;99.90;;;;;;4944679;28;20437;-90
2022/09/09 07:44:08;;;;;;;2.30;1.50;;;17.90;99.90;;;;;;4946521;28;20472;-89
2022/09/09 07:46:36;;;;;;;3.40;1.60;;;17.90;99.90;;;;;;4948770;28;20434;-90
2022/09/09 07:49:05;;;;;;;3.60;1.47;;;17.70;99.90;;;;;;4951245;28;20429;-90
2022/09/09 07:51:45;;;;;;;1.70;1.60;;;17.60;99.90;;;;;;4947466;28;20799;-90
2022/09/09 07:54:23;;;;;;;4.40;1.63;;;17.60;99.90;;;;;;4949368;28;20836;-89
2022/09/09 07:56:58;;;;;;;2.50;1.40;;;17.60;99.90;;;;;;4963800;28;20503;-92
2022/09/09 07:59:35;;;;;;;2.10;1.50;;;18.10;99.90;;;;;;4950098;28;20484;-91
2022/09/09 08:02:13;;;;;;;3.20;1.30;;;18.30;99.90;;;;;;4967717;28;20460;-91
2022/09/09 08:04:38;;;;;;;4.60;1.40;;;18.70;99.90;;;;;;4952055;28;20913;-91
2022/09/09 08:07:04;;;;;;;2.23;1.23;;;19.00;99.90;;;;;;4964519;28;20644;-90
2022/09/09 08:09:32;;;;;;;2.90;1.20;;;19.30;99.90;;;;;;4950494;28;20448;-91
2022/09/09 08:11:58;;;;;;;4.33;1.57;;;19.10;99.90;;;;;;4967184;28;20552;-91
2022/09/09 08:14:24;;;;;;;4.23;1.63;;;19.00;99.90;;;;;;4965410;28;20531;-90
2022/09/09 08:17:02;;;;;;;2.67;1.20;;;19.00;99.90;;;;;;4949688;28;20457;-90
2022/09/09 08:19:36;;;;;;;4.03;1.20;;;18.90;99.90;;;;;;4946657;28;20449;-91
2022/09/09 08:22:02;;;;;;;1.63;1.10;;;18.80;99.90;;;;;;4947176;28;20474;-91
2022/09/09 08:24:28;;;;;;;1.63;1.27;;;18.90;99.90;;;;;;4965828;28;20468;-91
2022/09/09 08:26:56;;;;;;;1.70;1.50;;;19.20;99.90;;;;;;4945672;28;20434;-90
2022/09/09 08:29:22;;;;;;;1.97;1.60;;;19.10;99.90;;;;;;4949127;28;20803;-90
2022/09/09 08:31:54;;;;;;;4.57;1.83;;;18.90;99.90;;;;;;4949672;28;20524;-93
2022/09/09 08:34:21;;;;;;;1.60;1.43;;;18.70;99.90;;;;;;4951432;28;20350;-90
2022/09/09 08:36:47;;;;;;;4.37;1.60;;;18.70;99.90;;;;;;4949591;28;20457;-91
2022/09/09 08:39:17;;;;;;;2.00;1.40;;;18.80;99.90;;;;;;4966156;28;20449;-92
2022/09/09 08:42:06;;;;;;;1.30;1.20;;;19.00;99.90;;;;;;4946248;28;20446;-92
2022/09/09 08:44:37;;;;;;;1.53;1.43;;;19.00;99.90;;;;;;4967418;28;20456;-92
2022/09/09 08:47:20;;;;;;;2.00;1.30;;;19.30;99.90;;;;;;4964336;28;20446;-91
2022/09/09 08:49:57;;;;;;;3.57;1.60;;;19.40;99.90;;;;;;4966692;28;20460;-92
2022/09/09 08:52:38;;;;;;;3.90;1.43;;;19.60;99.90;;;;;;4963630;28;21165;-91
2022/09/09 08:55:22;;;;;;;1.57;1.40;;;19.40;99.90;;;;;;4965491;28;21947;-91
2022/09/09 08:57:51;;;;;;;2.50;1.50;;;19.60;99.90;;;;;;4963453;28;20478;-90
2022/09/09 09:00:17;;;;;;;2.10;1.60;;;20.10;99.90;;;;;;4949207;28;20426;-91
2022/09/09 09:03:11;;;;;;;2.60;1.50;;;20.20;99.90;;;;;;4949662;28;20532;-93
2022/09/09 09:05:57;;;;;;;3.40;1.23;;;20.00;99.90;;;;;;4945712;28;20545;-92
2022/09/09 09:08:34;;;;;;;2.20;1.30;;;19.70;99.90;;;;;;4960284;28;20453;-91
2022/09/09 09:11:01;;;;;;;2.53;1.43;;;19.80;99.90;;;;;;4931907;28;20524;-91
2022/09/09 09:13:40;;;;;;;1.27;1.00;;;19.80;99.90;;;;;;4950749;28;20491;-92
2022/09/09 09:16:36;;;;;;;2.40;1.40;;;19.90;99.90;;;;;;4949297;28;21513;-92
2022/09/09 09:19:03;;;;;;;3.00;1.50;;;19.80;99.90;;;;;;4950823;28;20449;-93
2022/09/09 09:21:41;;;;;;;1.43;1.33;;;19.80;99.90;;;;;;4946809;28;20761;-92
2022/09/09 09:24:23;;;;;;;3.83;1.30;;;19.70;99.90;;;;;;4965452;28;20437;-92
2022/09/09 09:26:49;;;;;;;4.60;1.30;;;19.80;99.90;;;;;;4948009;28;20517;-93
2022/09/09 09:29:18;;;;;;;1.60;1.47;;;20.30;99.90;;;;;;4949880;28;20821;-92
2022/09/09 09:31:56;;;;;;;2.13;1.07;;;20.50;99.90;;;;;;4966862;28;20449;-91
2022/09/09 09:34:24;;;;;;;3.27;1.37;;;20.70;99.90;;;;;;4966698;28;21002;-94
2022/09/09 09:36:54;;;;;;;3.70;1.40;;;20.90;99.90;;;;;;4964907;28;20457;-92
2022/09/09 09:39:39;;;;;;;3.67;1.07;;;21.10;99.90;;;;;;4951094;28;20436;-92
2022/09/09 09:42:23;;;;;;;3.77;1.53;;;21.50;99.90;;;;;;4946137;28;20465;-92
2022/09/09 09:44:49;;;;;;;2.20;1.00;;;21.40;99.90;;;;;;4948894;28;20453;-93
2022/09/09 09:47:20;;;;;;;5.90;1.50;;;21.20;99.90;;;;;;4948241;28;20556;-92
2022/09/09 09:50:08;;;;;;;4.10;1.30;;;21.10;99.80;;;;;;4967616;28;20655;-92
2022/09/09 09:52:36;;;;;;;2.03;0.50;;;21.60;99.30;;;;;;4951179;28;20556;-92
2022/09/09 09:55:17;;;;;;;0.50;0.40;;;20.80;92.70;;;;;;4963934;28;20445;-92
2022/09/09 09:57:53;;;;;;;1.87;0.80;;;20.60;93.40;;;;;;4946513;28;20978;-92
2022/09/09 10:00:49;;;;;;;0.67;0.57;;;21.10;94.40;;;;;;4962753;28;20457;-92
2022/09/09 10:03:40;;;;;;;1.03;0.90;;;21.30;93.90;;;;;;4946594;28;20446;-92
2022/09/09 10:06:06;;;;;;;2.00;1.17;;;21.50;95.80;;;;;;4946680;28;20433;-90
2022/09/09 10:08:46;;;;;;;4.67;1.10;;;22.10;97.10;;;;;;4948994;28;20436;-91
2022/09/09 10:11:12;;;;;;;2.53;1.20;;;22.50;96.30;;;;;;4943995;28;21057;-92
2022/09/09 10:13:59;;;;;;;3.57;1.10;;;22.70;96.40;;;;;;4962162;28;20547;-90
2022/09/09 10:16:36;;;;;;;1.83;0.90;;;22.20;96.40;;;;;;4964028;28;20198;-90
2022/09/09 10:19:32;;;;;;;1.83;0.93;;;21.80;96.30;;;;;;4961662;28;20461;-90
2022/09/09 10:22:24;;;;;;;1.30;1.13;;;21.90;97.40;;;;;;4944007;28;20469;-89
2022/09/09 10:24:50;;;;;;;3.50;1.00;;;22.10;96.60;;;;;;4948027;28;20528;-91
2022/09/09 10:27:29;;;;;;;1.67;1.07;;;22.30;96.60;;;;;;4947292;28;20438;-90
2022/09/09 10:30:33;;;;;;;1.63;1.07;;;22.40;96.40;;;;;;4944989;28;20206;-89
2022/09/09 10:33:29;;;;;;;1.97;1.00;;;22.50;94.20;;;;;;4918631;28;20446;-92
2022/09/09 10:36:24;;;;;;;3.00;1.20;;;22.20;95.20;;;;;;4963919;28;20446;-91
2022/09/09 10:39:05;;;;;;;1.40;0.90;;;22.10;96.20;;;;;;4948382;28;20486;-91
2022/09/09 10:42:03;;;;;;;2.50;1.63;;;22.20;94.80;;;;;;4947473;28;21193;-93
2022/09/09 10:45:05;;;;;;;3.70;1.27;;;22.20;94.50;;;;;;4939979;28;20429;-91
2022/09/09 10:48:10;;;;;;;1.93;1.03;;;22.60;95.90;;;;;;4963031;28;21343;-91
2022/09/09 10:50:47;;;;;;;3.13;1.00;;;22.30;95.20;;;;;;4947581;28;20805;-92
2022/09/09 10:53:31;;;;;;;3.10;1.27;;;22.60;95.90;;;;;;4946365;28;20472;-91
2022/09/09 10:56:07;;;;;;;2.63;0.90;;;22.80;94.70;;;;;;4945762;28;20422;-90
2022/09/09 10:58:56;;;;;;;2.00;1.10;;;22.70;95.10;;;;;;4947531;28;20565;-90
2022/09/09 11:01:33;;;;;;;2.83;1.27;;;23.00;95.20;;;;;;4964467;28;20943;-93
2022/09/09 11:04:09;;;;;;;3.40;1.20;;;22.90;92.30;;;;;;4946217;28;20798;-90
2022/09/09 11:06:40;;;;;;;1.90;1.00;;;23.00;93.30;;;;;;4945481;28;20436;-91
2022/09/09 11:09:13;;;;;;;2.30;0.90;;;23.50;92.30;;;;;;4945735;28;20441;-91
2022/09/09 11:11:43;;;;;;;2.60;1.37;;;23.90;91.40;;;;;;4962517;28;21504;-93
2022/09/09 11:14:32;;;;;;;2.07;1.03;;;24.30;91.40;;;;;;4947476;28;20516;-92
2022/09/09 11:17:11;;;;;;;3.37;1.40;;;23.80;91.50;;;;;;4945065;28;20473;-94
2022/09/09 11:20:13;;;;;;;3.20;1.30;;;22.80;91.90;;;;;;4948863;28;20865;-91
2022/09/09 11:23:05;;;;;;;3.93;1.30;;;22.30;93.60;;;;;;4966335;28;20433;-92
2022/09/09 11:25:40;;;;;;;1.50;0.90;;;21.30;95.10;;;;;;4949909;28;20450;-93
2022/09/09 11:28:15;;;;;;;3.03;1.20;;;20.00;95.30;;;;;;4945738;28;20966;-93
2022/09/09 11:30:52;;;;;;;1.40;1.00;;;19.10;98.40;;;;;;4966603;28;20492;-91
2022/09/09 11:34:08;;;;;;;2.23;1.03;;;18.90;99.40;;;;;;4961403;28;20452;-91
2022/09/09 11:36:52;;;;;;;1.00;0.90;;;18.80;99.90;;;;;;4945056;28;20479;-92
2022/09/09 11:39:30;;;;;;;1.67;1.07;;;18.60;99.90;;;;;;4968463;28;20452;-92
2022/09/09 11:42:28;;;;;;;0.90;0.83;;;18.10;99.90;;;;;;4958881;28;20511;-94
2022/09/09 11:44:54;;;;;;;3.63;1.10;;;17.70;99.90;;;;;;4907078;28;20508;-92
2022/09/09 11:47:29;;;;;;;1.73;1.30;;;17.50;99.90;;;;;;4964014;28;20493;-92
2022/09/09 11:50:27;;;;;;;1.33;0.80;;;17.40;99.90;;;;;;4948625;28;20880;-93
2022/09/09 11:53:13;;;;;;;0.93;0.80;;;17.70;99.90;;;;;;4942298;28;20445;-92
2022/09/09 11:56:13;;;;;;;1.43;1.10;;;18.30;99.90;;;;;;4966078;28;20428;-92
2022/09/09 11:58:53;;;;;;;3.30;0.70;;;18.80;99.90;;;;;;4952749;28;21037;-91
2022/09/09 12:01:34;;;;;;;1.50;0.77;;;19.30;99.90;;;;;;4949598;28;20430;-91
2022/09/09 12:04:30;;;;;;;0.67;0.60;;;19.40;99.90;;;;;;4947002;28;20513;-92
2022/09/09 12:07:21;;;;;;;0.40;0.30;;;19.30;99.90;;;;;;4963186;28;20457;-92
2022/09/09 12:10:04;;;;;;;1.17;0.50;;;19.10;98.70;;;;;;4946103;28;20438;-90
2022/09/09 12:12:33;;;;;;;2.40;0.60;;;19.20;98.90;;;;;;4960319;28;21069;-91
2022/09/09 12:15:02;;;;;;;1.33;0.43;;;20.00;98.30;;;;;;4965161;28;20500;-92
2022/09/09 12:17:39;;;;;;;0.97;0.30;;;20.50;96.00;;;;;;4948578;28;20480;-92
2022/09/09 12:20:26;;;;;;;1.53;0.70;;;21.20;96.40;;;;;;4965600;28;20469;-91
2022/09/09 12:22:59;;;;;;;1.47;0.30;;;21.40;94.20;;;;;;4949374;28;20449;-91
2022/09/09 12:25:51;;;;;;;0.37;0.37;;;21.10;94.10;;;;;;4965791;28;20796;-93
2022/09/09 12:28:41;;;;;;;0.70;0.50;;;20.80;94.60;;;;;;4960997;28;20592;-91
2022/09/09 12:31:36;;;;;;;0.80;0.50;;;20.80;94.80;;;;;;4946934;28;20437;-91
2022/09/09 12:34:28;;;;;;;2.80;0.40;;;21.20;94.10;;;;;;4967764;28;20433;-93
2022/09/09 12:37:04;;;;;;;1.30;0.47;;;21.40;93.70;;;;;;4951308;28;20462;-92
2022/09/09 12:39:35;;;;;;;3.70;0.70;;;21.50;91.90;;;;;;4937577;28;20444;-93
2022/09/09 12:42:03;;;;;;;2.83;0.60;;;21.30;90.60;;;;;;4949432;28;20437;-91
2022/09/09 12:44:29;;;;;;;2.00;0.60;;;21.60;91.90;;;;;;4964056;28;20446;-92
2022/09/09 12:46:59;;;;;;;1.50;0.60;;;22.10;90.80;;;;;;4948441;28;20449;-92
2022/09/09 12:49:31;;;;;;;1.83;1.00;;;21.90;90.80;;;;;;4949139;28;20888;-92
2022/09/09 12:51:57;;;;;;;0.70;0.70;;;21.40;91.20;;;;;;4965897;28;20457;-91
2022/09/09 12:54:23;;;;;;;1.60;0.67;;;21.30;93.20;;;;;;4940447;28;20456;-92
2022/09/09 12:56:49;;;;;;;1.93;0.70;;;21.50;91.90;;;;;;4946648;28;20446;-91
2022/09/09 12:59:24;;;;;;;1.20;0.73;;;21.20;92.70;;;;;;4947928;28;21164;-92
2022/09/09 13:02:00;;;;;;;1.70;0.70;;;21.40;92.80;;;;;;4965670;28;20992;-93
2022/09/09 13:04:28;;;;;;;2.90;1.00;;;21.70;93.10;;;;;;4948193;28;20457;-94
2022/09/09 13:07:04;;;;;;;2.87;0.80;;;21.40;92.80;;;;;;4949162;28;20569;-92
2022/09/09 13:09:30;;;;;;;1.40;0.60;;;21.30;93.80;;;;;;4955232;28;20636;-92
2022/09/09 13:11:58;;;;;;;0.87;0.53;;;22.30;92.50;;;;;;4966393;28;21030;-93
2022/09/09 13:14:32;;;;;;;2.47;0.70;;;22.90;90.50;;;;;;4947992;28;20567;-93
2022/09/09 13:17:00;;;;;;;1.40;0.60;;;22.60;89.70;;;;;;4966695;28;20461;-91
2022/09/09 13:19:46;;;;;;;1.03;0.43;;;21.60;91.20;;;;;;4949572;28;20441;-93
2022/09/09 13:22:36;;;;;;;1.53;0.67;;;21.10;92.10;;;;;;4964551;28;20456;-94
2022/09/09 13:25:11;;;;;;;1.10;0.50;;;21.00;92.70;;;;;;4951323;28;20452;-92
2022/09/09 13:28:11;;;;;;;2.10;0.70;;;20.80;92.30;;;;;;4964672;28;20477;-93
2022/09/09 13:30:40;;;;;;;2.43;0.63;;;20.90;92.50;;;;;;4949449;28;20422;-93
2022/09/09 13:33:08;;;;;;;2.00;0.60;;;21.30;92.30;;;;;;4950563;28;20786;-93
2022/09/09 13:35:46;;;;;;;0.73;0.57;;;21.90;91.70;;;;;;4949766;28;20433;-92
2022/09/09 13:38:14;;;;;;;2.30;0.70;;;22.50;90.50;;;;;;4967473;28;20492;-92
2022/09/09 13:40:51;;;;;;;1.33;0.60;;;22.70;90.60;;;;;;4964527;28;20516;-92
2022/09/09 13:43:22;;;;;;;2.70;0.70;;;22.80;90.30;;;;;;4949306;28;20712;-93
2022/09/09 13:46:21;;;;;;;3.10;1.03;;;22.80;90.80;;;;;;4948315;28;20438;-92
2022/09/09 13:48:58;;;;;;;2.60;0.70;;;22.90;90.60;;;;;;4950531;28;20441;-92
2022/09/09 13:51:53;;;;;;;3.10;0.73;;;22.90;90.80;;;;;;4948791;28;20436;-92
2022/09/09 13:54:30;;;;;;;1.43;0.60;;;23.00;90.60;;;;;;4940260;28;20449;-94
2022/09/09 13:57:18;;;;;;;1.43;0.97;;;23.20;90.80;;;;;;4964975;28;20475;-94
2022/09/09 14:00:12;;;;;;;3.80;1.23;;;23.30;90.50;;;;;;4949320;28;20465;-92
2022/09/09 14:02:40;;;;;;;1.43;0.77;;;23.20;89.40;;;;;;4948131;28;20433;-93
2022/09/09 14:05:15;;;;;;;2.07;1.00;;;23.40;87.00;;;;;;4945977;28;20438;-93
2022/09/09 14:07:42;;;;;;;1.43;0.60;;;23.20;86.90;;;;;;4948591;28;20433;-92
2022/09/09 14:10:09;;;;;;;2.73;0.60;;;23.30;86.30;;;;;;4949888;28;20427;-92
2022/09/09 14:12:38;;;;;;;1.70;0.67;;;24.20;86.60;;;;;;4965522;28;20430;-93
2022/09/09 14:15:35;;;;;;;2.83;0.60;;;23.70;84.70;;;;;;4965242;28;20453;-93
2022/09/09 14:18:09;;;;;;;2.47;0.80;;;23.80;84.70;;;;;;4947361;28;20487;-93
2022/09/09 14:20:52;;;;;;;3.07;1.03;;;24.50;84.10;;;;;;4966185;28;20425;-94
2022/09/09 14:23:18;;;;;;;2.20;0.70;;;23.80;84.20;;;;;;4946352;28;20453;-94
2022/09/09 14:25:46;;;;;;;1.03;0.60;;;23.00;85.40;;;;;;4950538;28;20438;-91
2022/09/09 14:28:13;;;;;;;0.53;0.40;;;23.80;85.00;;;;;;4964918;28;20453;-93
2022/09/09 14:30:44;;;;;;;1.33;0.57;;;24.40;79.30;;;;;;4965037;28;20430;-91
2022/09/09 14:33:32;;;;;;;0.87;0.50;;;24.20;79.90;;;;;;4949026;28;20596;-91
2022/09/09 14:36:03;;;;;;;1.47;0.60;;;23.90;81.90;;;;;;4947088;28;20794;-91
2022/09/09 14:38:34;;;;;;;1.10;0.47;;;23.80;81.30;;;;;;4948587;28;20500;-93
2022/09/09 14:41:02;;;;;;;2.70;1.00;;;23.50;80.80;;;;;;4946409;28;21031;-92
2022/09/09 14:43:29;;;;;;;2.37;0.80;;;23.20;83.30;;;;;;4945750;28;20496;-92
2022/09/09 14:45:55;;;;;;;1.73;0.53;;;23.60;83.40;;;;;;4965743;28;21063;-92
2022/09/09 14:48:21;;;;;;;2.00;0.70;;;22.50;82.20;;;;;;4966323;28;20659;-89
2022/09/09 14:50:47;;;;;;;2.53;0.40;;;22.00;84.20;;;;;;4952102;28;20260;-91
2022/09/09 14:53:12;;;;;;;1.27;0.50;;;22.00;83.80;;;;;;4950174;28;20182;-93
2022/09/09 14:55:40;;;;;;;1.97;0.60;;;22.40;85.20;;;;;;4947491;28;20217;-92